createdAt,value
2022-10-30T00:01:23.068Z,13.27
2022-10-30T00:03:51.432Z,11.73
2022-10-30T00:06:19.568Z,11.63
2022-10-30T00:08:47.727Z,11.43
2022-10-30T00:11:15.808Z,11.27
2022-10-30T00:13:44.817Z,10.70
2022-10-30T00:16:13.169Z,10.93
2022-10-30T00:18:43.241Z,11.60
2022-10-30T00:21:13.873Z,10.98
2022-10-30T00:23:53.062Z,11.93
2022-10-30T00:26:22.665Z,10.85
2022-10-30T00:28:55.532Z,11.68
2022-10-30T00:31:23.960Z,12.70
2022-10-30T00:33:53.675Z,11.93
2022-10-30T00:36:23.227Z,12.45
2022-10-30T00:38:51.527Z,12.15
2022-10-30T00:41:23.794Z,13.32
2022-10-30T00:43:52.412Z,12.48
2022-10-30T00:46:40.634Z,11.75
2022-10-30T00:49:16.993Z,12.88
2022-10-30T00:51:53.846Z,12.35
2022-10-30T00:54:23.658Z,12.88
2022-10-30T00:56:54.083Z,12.63
2022-10-30T00:59:30.941Z,13.73
2022-10-30T01:02:01.075Z,13.32
2022-10-30T01:04:33.133Z,14.02
2022-10-30T01:07:09.551Z,12.57
2022-10-30T01:09:40.878Z,13.20
2022-10-30T01:12:09.122Z,12.80
2022-10-30T01:14:45.965Z,14.38
2022-10-30T01:17:25.880Z,13.95
2022-10-30T01:20:43.211Z,13.88
2022-10-30T01:23:46.916Z,14.63
2022-10-30T01:26:39.084Z,17.65
2022-10-30T01:29:33.380Z,16.85
2022-10-30T01:32:30.514Z,17.35
2022-10-30T01:35:10.694Z,17.25
2022-10-30T01:37:56.634Z,18.70
2022-10-30T01:40:25.460Z,17.45
2022-10-30T01:42:58.404Z,17.02
2022-10-30T01:45:44.762Z,17.52
2022-10-30T01:48:42.173Z,17.48
2022-10-30T01:51:37.451Z,18.13
2022-10-30T01:54:52.410Z,18.45
2022-10-30T01:57:44.000Z,19.38
2022-10-30T02:00:17.134Z,19.10
2022-10-30T02:02:51.363Z,19.70
2022-10-30T02:05:46.197Z,19.35
2022-10-30T02:08:14.531Z,19.50
2022-10-30T02:10:47.003Z,20.17
2022-10-30T02:13:15.646Z,20.58
2022-10-30T02:15:47.939Z,19.30
2022-10-30T02:18:16.290Z,17.63
2022-10-30T02:20:44.691Z,15.50
2022-10-30T02:23:18.930Z,16.02
2022-10-30T02:25:47.107Z,17.10
2022-10-30T02:28:15.316Z,16.50
2022-10-30T02:30:46.228Z,16.98
2022-10-30T02:33:14.489Z,16.95
2022-10-30T02:35:42.799Z,16.52
2022-10-30T02:38:10.931Z,15.70
2022-10-30T02:40:39.171Z,17.67
2022-10-30T02:43:09.052Z,17.42
2022-10-30T02:45:37.216Z,16.30
2022-10-30T02:48:05.646Z,15.07
2022-10-30T02:50:33.973Z,16.27
2022-10-30T02:53:02.374Z,16.23
2022-10-30T02:55:30.510Z,14.70
2022-10-30T02:57:59.461Z,15.20
2022-10-30T03:00:27.638Z,16.90
2022-10-30T03:02:58.940Z,17.35
2022-10-30T03:05:27.610Z,15.82
2022-10-30T03:07:56.275Z,16.15
2022-10-30T03:10:24.732Z,17.27
2022-10-30T03:12:53.693Z,15.63
2022-10-30T03:15:22.079Z,17.70
2022-10-30T03:17:52.477Z,15.98
2022-10-30T03:20:20.841Z,16.83
2022-10-30T03:22:48.990Z,18.02
2022-10-30T03:25:23.750Z,18.35
2022-10-30T03:27:56.134Z,16.50
2022-10-30T03:30:24.762Z,16.88
2022-10-30T03:32:52.896Z,16.08
2022-10-30T03:35:21.887Z,15.45
2022-10-30T03:37:50.079Z,16.85
2022-10-30T03:40:22.247Z,17.63
2022-10-30T03:42:51.297Z,16.83
2022-10-30T03:45:19.406Z,17.73
2022-10-30T03:47:47.669Z,17.10
2022-10-30T03:50:16.023Z,17.42
2022-10-30T03:52:44.191Z,17.23
2022-10-30T03:55:13.507Z,17.00
2022-10-30T03:57:43.266Z,17.30
2022-10-30T04:00:21.125Z,16.80
2022-10-30T04:02:58.665Z,17.58
2022-10-30T04:05:29.517Z,17.80
2022-10-30T04:08:03.421Z,17.00
2022-10-30T04:10:41.793Z,18.55
2022-10-30T04:13:13.827Z,18.55
2022-10-30T04:15:57.204Z,15.50
2022-10-30T04:18:26.785Z,15.98
2022-10-30T04:20:59.078Z,14.20
2022-10-30T04:23:27.400Z,14.68
2022-10-30T04:25:59.904Z,14.02
2022-10-30T04:28:28.543Z,15.95
2022-10-30T04:30:57.194Z,14.95
2022-10-30T04:33:27.224Z,14.35
2022-10-30T04:35:59.024Z,16.67
2022-10-30T04:38:27.168Z,17.15
2022-10-30T04:40:57.322Z,15.00
2022-10-30T04:43:57.574Z,16.60
2022-10-30T04:46:25.735Z,15.48
2022-10-30T04:48:57.393Z,15.70
2022-10-30T04:51:26.119Z,14.68
2022-10-30T04:53:55.154Z,17.20
2022-10-30T04:56:23.894Z,17.95
2022-10-30T04:58:53.436Z,17.35
2022-10-30T05:01:22.243Z,18.88
2022-10-30T05:03:53.756Z,19.20
2022-10-30T05:06:26.148Z,17.63
2022-10-30T05:08:57.101Z,18.60
2022-10-30T05:11:52.998Z,18.90
2022-10-30T05:14:23.182Z,21.08
2022-10-30T05:16:51.549Z,21.52
2022-10-30T05:19:19.683Z,20.73
2022-10-30T05:21:54.182Z,21.45
2022-10-30T05:24:22.375Z,23.15
2022-10-30T05:26:51.374Z,21.88
2022-10-30T05:29:19.536Z,21.95
2022-10-30T05:31:47.700Z,21.88
2022-10-30T05:34:18.704Z,19.80
2022-10-30T05:36:50.306Z,20.63
2022-10-30T05:39:19.570Z,19.23
2022-10-30T05:41:50.652Z,20.63
2022-10-30T05:44:29.187Z,19.50
2022-10-30T05:47:11.373Z,18.92
2022-10-30T05:49:41.638Z,17.38
2022-10-30T05:52:17.097Z,17.02
2022-10-30T05:54:45.361Z,17.27
2022-10-30T05:57:19.262Z,19.30
2022-10-30T05:59:48.240Z,17.83
2022-10-30T06:02:17.752Z,17.35
2022-10-30T06:04:46.063Z,18.25
2022-10-30T06:07:15.519Z,16.45
2022-10-30T06:09:44.064Z,17.42
2022-10-30T06:12:27.123Z,16.17
2022-10-30T06:15:24.848Z,15.90
2022-10-30T06:17:53.653Z,15.38
2022-10-30T06:20:31.286Z,15.05
2022-10-30T06:23:17.699Z,14.55
2022-10-30T06:25:52.811Z,15.10
2022-10-30T06:28:31.438Z,14.27
2022-10-30T06:30:59.782Z,14.45
2022-10-30T06:33:28.518Z,14.32
2022-10-30T06:35:56.988Z,15.20
2022-10-30T06:38:25.982Z,14.75
2022-10-30T06:40:55.563Z,15.07
2022-10-30T06:43:46.931Z,13.30
2022-10-30T06:46:23.289Z,12.95
2022-10-30T06:48:53.140Z,13.48
2022-10-30T06:51:22.166Z,13.50
2022-10-30T06:53:53.311Z,13.88
2022-10-30T06:56:44.568Z,13.13
2022-10-30T06:59:30.949Z,12.88
2022-10-30T07:02:34.283Z,12.43
2022-10-30T07:05:07.580Z,12.20
2022-10-30T07:07:35.764Z,12.55
2022-10-30T07:10:04.449Z,13.43
2022-10-30T07:12:59.991Z,16.75
2022-10-30T07:15:46.804Z,15.65
2022-10-30T07:18:26.201Z,16.48
2022-10-30T07:20:58.369Z,14.80
2022-10-30T07:23:30.291Z,16.45
2022-10-30T07:26:13.059Z,14.33
2022-10-30T07:28:47.099Z,13.85
2022-10-30T07:31:34.966Z,13.52
2022-10-30T07:34:31.282Z,15.60
2022-10-30T07:37:25.663Z,13.57
2022-10-30T07:40:12.501Z,16.40
2022-10-30T07:43:01.339Z,14.45
2022-10-30T07:45:46.015Z,12.68
2022-10-30T07:48:34.427Z,14.20
2022-10-30T07:51:22.864Z,15.63
2022-10-30T07:53:51.168Z,16.75
2022-10-30T07:56:20.783Z,15.75
2022-10-30T07:58:57.965Z,17.27
2022-10-30T08:01:44.939Z,18.90
2022-10-30T08:04:46.020Z,17.75
2022-10-30T08:07:45.838Z,16.52
2022-10-30T08:10:14.963Z,15.52
2022-10-30T08:12:44.562Z,17.27
2022-10-30T08:15:12.870Z,17.70
2022-10-30T08:17:45.957Z,16.83
2022-10-30T08:22:52.552Z,16.50
2022-10-30T08:25:27.289Z,17.75
2022-10-30T08:27:58.992Z,18.10
2022-10-30T08:30:34.325Z,19.15
2022-10-30T08:33:07.427Z,20.65
2022-10-30T08:35:57.367Z,21.75
2022-10-30T08:38:28.506Z,21.73
2022-10-30T08:41:10.382Z,21.27
2022-10-30T08:43:45.316Z,21.77
2022-10-30T08:46:13.561Z,21.48
2022-10-30T08:48:42.427Z,19.00
2022-10-30T08:51:11.196Z,18.52
2022-10-30T08:53:45.193Z,19.38
2022-10-30T08:56:17.423Z,16.05
2022-10-30T08:59:08.174Z,17.98
2022-10-30T09:01:37.575Z,16.92
2022-10-30T09:04:20.673Z,17.70
2022-10-30T09:07:10.257Z,17.20
2022-10-30T09:09:59.455Z,18.52
2022-10-30T09:12:30.832Z,17.00
2022-10-30T09:14:59.324Z,16.35
2022-10-30T09:17:28.100Z,17.80
2022-10-30T09:19:56.920Z,17.02
2022-10-30T09:22:35.051Z,15.95
2022-10-30T09:25:07.115Z,18.10
2022-10-30T09:28:07.299Z,17.58
2022-10-30T09:30:56.572Z,15.93
2022-10-30T09:33:27.969Z,15.65
2022-10-30T09:36:24.943Z,17.27
2022-10-30T09:38:55.446Z,14.45
2022-10-30T09:41:33.655Z,16.48
2022-10-30T09:44:20.325Z,15.45
2022-10-30T09:47:09.653Z,17.58
2022-10-30T09:50:04.863Z,15.68
2022-10-30T09:53:03.478Z,16.10
2022-10-30T09:55:54.286Z,16.80
2022-10-30T09:58:46.392Z,15.77
2022-10-30T10:01:24.096Z,18.27
2022-10-30T10:04:23.941Z,18.38
2022-10-30T10:07:27.928Z,21.08
2022-10-30T10:10:20.622Z,19.98
2022-10-30T10:13:01.052Z,18.58
2022-10-30T10:15:37.377Z,18.35
2022-10-30T10:18:15.328Z,17.50
2022-10-30T10:20:47.114Z,19.23
2022-10-30T10:23:28.264Z,19.65
2022-10-30T10:26:04.031Z,19.08
2022-10-30T10:28:53.550Z,17.70
2022-10-30T10:31:47.303Z,21.52
2022-10-30T10:34:42.834Z,20.92
2022-10-30T10:37:27.537Z,20.73
2022-10-30T10:40:14.234Z,20.92
2022-10-30T10:42:53.695Z,21.60
2022-10-30T10:45:30.916Z,23.83
2022-10-30T10:48:20.664Z,23.77
2022-10-30T10:51:13.113Z,23.77
2022-10-30T10:53:55.850Z,23.83
2022-10-30T10:56:29.687Z,24.45
2022-10-30T10:59:02.178Z,24.73
2022-10-30T11:01:40.384Z,24.40
2022-10-30T11:04:34.909Z,23.70
2022-10-30T11:07:17.379Z,25.80
2022-10-30T11:09:47.517Z,24.33
2022-10-30T11:12:15.725Z,24.25
2022-10-30T11:14:43.875Z,25.55
2022-10-30T11:17:33.946Z,25.73
2022-10-30T11:20:14.383Z,23.83
2022-10-30T11:22:49.377Z,25.63
2022-10-30T11:25:27.068Z,26.25
2022-10-30T11:28:05.354Z,25.27
2022-10-30T11:30:33.598Z,24.95
2022-10-30T11:33:22.319Z,24.00
2022-10-30T11:35:50.415Z,21.73
2022-10-30T11:38:24.073Z,24.25
2022-10-30T11:40:54.407Z,21.48
2022-10-30T11:43:25.564Z,24.73
2022-10-30T11:45:54.674Z,22.65
2022-10-30T11:48:32.645Z,22.92
2022-10-30T11:51:04.532Z,22.60
2022-10-30T11:53:39.352Z,22.27
2022-10-30T11:56:22.260Z,21.40
2022-10-30T11:58:56.906Z,21.80
2022-10-30T12:01:31.413Z,18.05
2022-10-30T12:04:25.980Z,19.25
2022-10-30T12:07:20.669Z,20.42
2022-10-30T12:09:49.100Z,20.23
2022-10-30T12:12:25.664Z,16.98
2022-10-30T12:14:55.690Z,17.10
2022-10-30T12:17:23.905Z,16.40
2022-10-30T12:19:55.144Z,15.65
2022-10-30T12:22:31.200Z,13.95
2022-10-30T12:25:02.995Z,18.42
2022-10-30T12:27:36.247Z,16.13
2022-10-30T12:30:20.370Z,18.42
2022-10-30T12:33:08.156Z,18.73
2022-10-30T12:35:50.420Z,18.98
2022-10-30T12:38:48.362Z,17.80
2022-10-30T12:41:40.461Z,17.67
2022-10-30T12:44:15.342Z,18.55
2022-10-30T12:47:05.244Z,16.88
2022-10-30T12:49:36.211Z,17.58
2022-10-30T12:52:10.132Z,18.73
2022-10-30T12:55:15.830Z,16.92
2022-10-30T12:57:54.847Z,19.15
2022-10-30T13:00:22.972Z,18.50
2022-10-30T13:03:15.390Z,16.95
2022-10-30T13:05:57.076Z,18.60
2022-10-30T13:08:54.649Z,17.23
2022-10-30T13:11:33.833Z,16.00
2022-10-30T13:14:05.320Z,16.98
2022-10-30T13:16:33.719Z,17.25
2022-10-30T13:19:03.101Z,16.60
2022-10-30T13:21:40.129Z,16.63
2022-10-30T13:24:32.702Z,16.50
2022-10-30T13:27:17.519Z,14.80
2022-10-30T13:30:04.197Z,14.63
2022-10-30T13:32:57.614Z,11.52
2022-10-30T13:35:47.481Z,13.43
2022-10-30T13:38:31.877Z,13.48
2022-10-30T13:41:23.608Z,11.35
2022-10-30T13:43:54.946Z,11.82
2022-10-30T13:46:41.288Z,10.93
2022-10-30T13:49:49.961Z,10.75
2022-10-30T13:52:22.705Z,10.82
2022-10-30T13:55:02.977Z,11.65
2022-10-30T13:57:44.662Z,11.65
2022-10-30T14:00:50.359Z,12.43
2022-10-30T14:03:42.099Z,11.15
2022-10-30T14:06:29.433Z,9.40
2022-10-30T14:08:57.556Z,9.88
2022-10-30T14:11:25.750Z,9.32
2022-10-30T14:14:03.447Z,9.73
2022-10-30T14:16:33.655Z,11.80
2022-10-30T14:19:07.891Z,11.98
2022-10-30T14:21:48.077Z,10.27
2022-10-30T14:24:28.704Z,10.13
2022-10-30T14:27:05.776Z,10.15
2022-10-30T14:29:36.550Z,9.88
2022-10-30T14:32:24.562Z,9.93
2022-10-30T14:34:53.168Z,9.35
2022-10-30T14:37:24.344Z,9.80
2022-10-30T14:39:53.810Z,9.20
2022-10-30T14:42:51.404Z,9.27
2022-10-30T14:46:10.774Z,9.18
2022-10-30T14:49:10.316Z,9.38
2022-10-30T14:51:46.367Z,10.95
2022-10-30T14:54:28.924Z,9.57
2022-10-30T14:56:57.462Z,10.60
2022-10-30T14:59:34.108Z,11.13
2022-10-30T15:02:14.771Z,10.02
2022-10-30T15:04:55.395Z,9.73
2022-10-30T15:07:35.533Z,9.43
2022-10-30T15:10:10.902Z,9.35
2022-10-30T15:13:18.217Z,9.80
2022-10-30T15:15:56.963Z,10.85
2022-10-30T15:18:30.342Z,10.85
2022-10-30T15:21:06.583Z,12.07
2022-10-30T15:23:37.266Z,18.67
2022-10-30T15:26:10.115Z,16.75
2022-10-30T15:28:40.161Z,9.20
2022-10-30T15:31:23.500Z,8.65
2022-10-30T15:33:54.266Z,7.72
2022-10-30T15:36:29.170Z,8.27
2022-10-30T15:39:15.568Z,8.05
2022-10-30T15:41:54.570Z,8.27
2022-10-30T15:44:27.407Z,8.73
2022-10-30T15:47:00.503Z,8.50
2022-10-30T15:49:38.755Z,7.65
2022-10-30T15:52:24.568Z,9.18
2022-10-30T15:54:59.623Z,8.20
2022-10-30T15:58:01.180Z,9.00
2022-10-30T16:00:25.956Z,9.15
2022-10-30T16:03:22.419Z,8.27
2022-10-30T16:05:50.639Z,8.07
2022-10-30T16:08:25.464Z,7.30
2022-10-30T16:10:55.189Z,8.50
2022-10-30T16:13:28.884Z,8.50
2022-10-30T16:15:57.414Z,8.55
2022-10-30T16:18:32.610Z,7.85
2022-10-30T16:21:07.633Z,7.18
2022-10-30T16:23:41.385Z,8.77
2022-10-30T16:26:23.341Z,7.93
2022-10-30T16:28:51.550Z,8.70
2022-10-30T16:31:20.631Z,7.43
2022-10-30T16:33:50.350Z,8.68
2022-10-30T16:36:19.681Z,8.57
2022-10-30T16:38:49.268Z,7.95
2022-10-30T16:41:22.721Z,7.93
2022-10-30T16:44:26.605Z,8.63
2022-10-30T16:47:25.956Z,9.05
2022-10-30T16:49:57.507Z,8.48
2022-10-30T16:52:35.557Z,8.57
2022-10-30T16:55:13.060Z,7.82
2022-10-30T16:57:47.177Z,8.05
2022-10-30T17:00:25.827Z,8.88
2022-10-30T17:02:57.720Z,9.20
2022-10-30T17:05:28.896Z,9.07
2022-10-30T17:07:58.774Z,10.35
2022-10-30T17:10:44.765Z,10.13
2022-10-30T17:13:37.987Z,9.77
2022-10-30T17:16:26.478Z,10.70
2022-10-30T17:18:57.374Z,8.88
2022-10-30T17:21:41.161Z,11.07
2022-10-30T17:24:30.789Z,10.52
2022-10-30T17:27:04.020Z,11.88
2022-10-30T17:29:38.213Z,13.13
2022-10-30T17:32:23.430Z,11.40
2022-10-30T17:35:15.637Z,12.63
2022-10-30T17:37:44.312Z,10.85
2022-10-30T17:40:13.320Z,11.50
2022-10-30T17:42:41.979Z,11.13
2022-10-30T17:45:15.304Z,12.15
2022-10-30T17:50:11.786Z,11.40
2022-10-30T17:52:40.098Z,11.05
2022-10-30T17:55:22.515Z,11.30
2022-10-30T17:57:50.812Z,10.13
2022-10-30T18:00:20.692Z,10.60
2022-10-30T18:02:49.176Z,11.52
2022-10-30T18:05:20.933Z,10.20
2022-10-30T18:10:18.326Z,10.10
2022-10-30T18:12:49.044Z,10.20
2022-10-30T18:15:26.050Z,10.82
2022-10-30T18:17:55.121Z,11.32
2022-10-30T18:20:23.860Z,10.98
2022-10-30T18:22:55.640Z,11.52
2022-10-30T18:25:30.579Z,11.23
2022-10-30T18:27:58.980Z,10.73
2022-10-30T18:30:29.138Z,13.18
2022-10-30T18:32:59.956Z,11.85
2022-10-30T18:35:33.675Z,12.65
2022-10-30T18:38:02.265Z,11.60
2022-10-30T18:40:33.427Z,12.85
2022-10-30T18:43:02.650Z,12.68
2022-10-30T18:45:35.810Z,13.18
2022-10-30T18:48:04.396Z,14.82
2022-10-30T18:50:32.974Z,12.40
2022-10-30T18:53:02.069Z,10.98
2022-10-30T18:55:36.502Z,12.55
2022-10-30T18:58:06.371Z,11.32
2022-10-30T19:00:58.207Z,11.80
2022-10-30T19:03:24.244Z,13.55
2022-10-30T19:05:52.626Z,13.95
2022-10-30T19:08:20.763Z,13.13
2022-10-30T19:10:49.055Z,15.60
2022-10-30T19:13:22.355Z,11.25
2022-10-30T19:16:01.021Z,12.13
2022-10-30T19:18:31.475Z,12.15
2022-10-30T19:21:10.319Z,12.05
2022-10-30T19:23:43.004Z,12.38
2022-10-30T19:26:13.419Z,12.85
2022-10-30T19:28:41.949Z,12.60
2022-10-30T19:31:17.734Z,12.35
2022-10-30T19:33:49.990Z,12.38
2022-10-30T19:36:26.460Z,11.30
2022-10-30T19:38:55.098Z,13.02
2022-10-30T19:41:24.784Z,13.73
2022-10-30T19:43:54.041Z,13.55
2022-10-30T19:46:22.620Z,13.25
2022-10-30T19:48:59.208Z,12.63
2022-10-30T19:51:28.982Z,11.93
2022-10-30T19:53:57.243Z,12.15
2022-10-30T19:56:25.382Z,13.05
2022-10-30T19:58:53.492Z,12.00
2022-10-30T20:01:21.843Z,14.32
2022-10-30T20:03:50.207Z,13.90
2022-10-30T20:06:19.350Z,13.80
2022-10-30T20:08:47.619Z,13.35
2022-10-30T20:11:15.742Z,13.52
2022-10-30T20:13:43.816Z,13.95
2022-10-30T20:16:12.042Z,14.30
2022-10-30T20:18:40.215Z,14.32
2022-10-30T20:21:11.330Z,13.48
2022-10-30T20:23:39.423Z,14.13
2022-10-30T20:26:19.180Z,14.45
2022-10-30T20:28:47.388Z,14.23
2022-10-30T20:31:15.546Z,14.68
2022-10-30T20:33:43.639Z,13.68
2022-10-30T20:36:13.858Z,14.70
2022-10-30T20:38:42.278Z,14.38
2022-10-30T20:41:24.604Z,14.70
2022-10-30T20:43:52.895Z,16.05
2022-10-30T20:46:21.539Z,13.52
2022-10-30T20:48:50.778Z,14.63
2022-10-30T20:51:18.942Z,14.93
2022-10-30T20:53:47.064Z,14.23
2022-10-30T20:56:15.289Z,14.43
2022-10-30T20:58:43.529Z,13.65
2022-10-30T21:01:14.868Z,18.23
2022-10-30T21:03:43.073Z,15.90
2022-10-30T21:06:11.205Z,14.10
2022-10-30T21:08:39.331Z,13.18
2022-10-30T21:11:08.388Z,12.38
2022-10-30T21:13:37.531Z,13.50
2022-10-30T21:16:08.666Z,12.50
2022-10-30T21:18:36.825Z,12.25
2022-10-30T21:21:08.003Z,12.57
2022-10-30T21:23:36.147Z,13.40
2022-10-30T21:26:09.814Z,14.40
2022-10-30T21:28:38.709Z,15.02
2022-10-30T21:31:10.615Z,17.30
2022-10-30T21:33:39.466Z,17.92
2022-10-30T21:36:13.643Z,18.90
2022-10-30T21:38:44.324Z,18.67
2022-10-30T21:41:15.496Z,14.80
2022-10-30T21:43:48.754Z,15.50
2022-10-30T21:46:16.926Z,15.15
2022-10-30T21:48:45.123Z,14.57
2022-10-30T21:51:19.039Z,14.68
2022-10-30T21:53:48.030Z,15.00
2022-10-30T21:56:28.684Z,14.43
2022-10-30T21:59:04.669Z,14.75
2022-10-30T22:01:35.436Z,14.80
2022-10-30T22:04:05.972Z,14.73
2022-10-30T22:06:34.366Z,15.43
2022-10-30T22:09:02.580Z,15.23
2022-10-30T22:11:30.681Z,14.52
2022-10-30T22:14:03.522Z,14.23
2022-10-30T22:16:34.412Z,14.10
2022-10-30T22:19:03.212Z,15.07
2022-10-30T22:21:31.488Z,15.07
2022-10-30T22:24:03.855Z,16.73
2022-10-30T22:26:32.242Z,14.37
2022-10-30T22:29:01.116Z,15.40
2022-10-30T22:31:30.532Z,15.85
2022-10-30T22:34:00.969Z,14.60
2022-10-30T22:36:33.344Z,15.25
2022-10-30T22:39:07.858Z,14.75
2022-10-30T22:41:37.519Z,15.23
2022-10-30T22:44:13.136Z,13.48
2022-10-30T22:46:41.846Z,14.18
2022-10-30T22:49:10.046Z,13.63
2022-10-30T22:51:39.599Z,14.48
2022-10-30T22:54:14.859Z,14.25
2022-10-30T22:56:43.081Z,14.85
2022-10-30T22:59:13.469Z,13.48
2022-10-30T23:01:42.898Z,14.85
2022-10-30T23:04:15.071Z,14.55
2022-10-30T23:06:43.730Z,13.93
2022-10-30T23:09:18.477Z,16.38
2022-10-30T23:11:46.614Z,16.50
2022-10-30T23:14:19.001Z,15.05
2022-10-30T23:16:47.142Z,16.45
2022-10-30T23:19:15.321Z,15.93
2022-10-30T23:21:43.451Z,15.80
2022-10-30T23:24:14.617Z,15.23
2022-10-30T23:26:42.956Z,15.15
2022-10-30T23:29:11.181Z,15.45
2022-10-30T23:31:41.752Z,17.20
2022-10-30T23:34:14.185Z,15.50
2022-10-30T23:36:43.416Z,15.27
2022-10-30T23:39:17.249Z,16.45
2022-10-30T23:41:45.791Z,15.75
2022-10-30T23:44:15.445Z,17.02
2022-10-30T23:46:43.967Z,16.13
2022-10-30T23:49:12.152Z,16.92
2022-10-30T23:51:40.498Z,16.65
2022-10-30T23:54:08.817Z,15.45
2022-10-30T23:56:36.934Z,16.65
2022-10-30T23:59:05.453Z,15.98
